Time;durP1;ratioP1;P1;durP2;ratioP2;P2;SDS_P1;SDS_P2;PMS_P1;PMS_P2;Temp;Humidity;BMP_temperature;BMP_pressure;BME280_temperature;BME280_humidity;BME280_pressure;Samples;Min_cycle;Max_cycle;Signal;HPM_P1;HPM_P2
2023/07/28 00:01:58;;;;;;;2.42;1.45;;;19.50;99.90;;;;;;4904676;29;20113;-84
2023/07/28 00:04:24;;;;;;;2.40;1.80;;;19.50;99.90;;;;;;4903748;29;20092;-84
2023/07/28 00:06:51;;;;;;;2.38;1.90;;;19.50;99.90;;;;;;4904296;29;20485;-84
2023/07/28 00:09:18;;;;;;;2.80;1.83;;;19.50;99.90;;;;;;4903752;29;20055;-85
2023/07/28 00:11:45;;;;;;;2.33;1.83;;;19.50;99.90;;;;;;4904295;29;20045;-84
2023/07/28 00:14:12;;;;;;;3.50;1.70;;;19.60;99.90;;;;;;4918960;29;20040;-84
2023/07/28 00:16:38;;;;;;;3.75;1.90;;;19.60;99.90;;;;;;4903798;29;20053;-83
2023/07/28 00:19:05;;;;;;;2.45;1.77;;;19.60;99.90;;;;;;4904771;29;20052;-85
2023/07/28 00:21:32;;;;;;;2.75;2.10;;;19.60;99.90;;;;;;4905335;29;20059;-86
2023/07/28 00:23:59;;;;;;;3.40;1.98;;;19.60;99.90;;;;;;4903852;29;20053;-85
2023/07/28 00:26:26;;;;;;;3.70;1.90;;;19.60;99.90;;;;;;4904716;29;20057;-84
2023/07/28 00:28:52;;;;;;;3.28;2.13;;;19.60;99.90;;;;;;4905706;29;20056;-84
2023/07/28 00:31:19;;;;;;;2.97;1.73;;;19.60;99.90;;;;;;4901822;29;20045;-84
2023/07/28 00:33:46;;;;;;;2.50;2.15;;;19.60;99.90;;;;;;4904484;29;20529;-84
2023/07/28 00:36:12;;;;;;;4.50;2.25;;;19.60;99.90;;;;;;4904801;29;20093;-84
2023/07/28 00:38:39;;;;;;;3.38;1.77;;;19.60;99.90;;;;;;4904887;29;20044;-84
2023/07/28 00:41:06;;;;;;;3.50;2.63;;;19.60;99.90;;;;;;4906274;29;20394;-85
2023/07/28 00:43:32;;;;;;;4.60;1.80;;;19.60;99.90;;;;;;4904739;29;20056;-84
2023/07/28 00:45:59;;;;;;;2.63;1.75;;;19.60;99.90;;;;;;4905171;29;20055;-85
2023/07/28 00:48:26;;;;;;;3.42;1.80;;;19.60;99.90;;;;;;4905576;29;20056;-84
2023/07/28 00:50:54;;;;;;;2.72;1.88;;;19.50;99.90;;;;;;4910384;29;20049;-84
2023/07/28 00:53:23;;;;;;;2.97;1.77;;;19.50;99.90;;;;;;4932531;29;20044;-85
2023/07/28 00:55:50;;;;;;;3.10;1.80;;;19.50;99.90;;;;;;4911239;29;20055;-86
2023/07/28 00:58:18;;;;;;;2.00;1.90;;;19.50;99.90;;;;;;4904727;29;20044;-85
2023/07/28 01:00:44;;;;;;;5.20;2.20;;;19.50;99.90;;;;;;4917385;29;20048;-85
2023/07/28 01:03:11;;;;;;;4.20;1.83;;;19.50;99.90;;;;;;4918987;29;20485;-85
2023/07/28 01:06:07;;;;;;;3.42;1.83;;;19.50;99.90;;;;;;4905234;29;20057;-85
2023/07/28 01:08:43;;;;;;;2.40;2.08;;;19.50;99.90;;;;;;4904663;29;20063;-85
2023/07/28 01:11:09;;;;;;;2.47;1.80;;;19.60;99.90;;;;;;4919797;29;20049;-84
2023/07/28 01:13:36;;;;;;;4.40;2.00;;;19.60;99.90;;;;;;4907995;29;20049;-86
2023/07/28 01:16:03;;;;;;;3.08;2.38;;;19.60;99.90;;;;;;4909405;29;20552;-84
2023/07/28 01:18:30;;;;;;;3.00;2.20;;;19.60;99.90;;;;;;4908404;29;20044;-84
2023/07/28 01:21:03;;;;;;;3.88;1.95;;;19.50;99.90;;;;;;4908044;29;20096;-85
2023/07/28 01:24:05;;;;;;;2.53;1.80;;;19.60;99.90;;;;;;4907864;29;20108;-84
2023/07/28 01:26:36;;;;;;;5.72;2.08;;;19.50;99.90;;;;;;4917954;29;20072;-86
2023/07/28 01:29:05;;;;;;;3.83;1.90;;;19.60;99.90;;;;;;4916723;29;20053;-86
2023/07/28 01:31:32;;;;;;;3.33;2.05;;;19.60;99.90;;;;;;4908747;29;20049;-85
2023/07/28 01:33:59;;;;;;;4.10;1.95;;;19.60;99.90;;;;;;4908145;29;20051;-86
2023/07/28 01:36:26;;;;;;;3.10;2.40;;;19.50;99.90;;;;;;4922959;29;20056;-84
2023/07/28 01:38:53;;;;;;;3.15;1.92;;;19.60;99.90;;;;;;4922680;29;20041;-84
2023/07/28 01:41:20;;;;;;;3.30;1.67;;;19.60;99.90;;;;;;4903294;29;20129;-85
2023/07/28 01:43:47;;;;;;;3.13;2.00;;;19.60;99.90;;;;;;4907557;29;20056;-84
2023/07/28 01:46:14;;;;;;;3.45;2.03;;;19.60;99.90;;;;;;4907295;29;20057;-85
2023/07/28 01:48:41;;;;;;;4.20;2.03;;;19.60;99.90;;;;;;4907878;29;20504;-85
2023/07/28 01:51:07;;;;;;;2.88;2.00;;;19.60;99.90;;;;;;4907507;29;20044;-85
2023/07/28 01:53:34;;;;;;;2.75;1.70;;;19.60;99.90;;;;;;4907498;29;20048;-85
2023/07/28 01:56:01;;;;;;;3.88;1.77;;;19.60;99.90;;;;;;4906998;29;20092;-84
2023/07/28 01:58:27;;;;;;;5.43;1.80;;;19.60;99.90;;;;;;4905937;29;20064;-84
2023/07/28 02:00:54;;;;;;;2.85;1.50;;;19.60;99.90;;;;;;4904967;29;20639;-85
2023/07/28 02:03:21;;;;;;;2.63;1.77;;;19.60;99.90;;;;;;4917347;29;20135;-85
2023/07/28 02:05:48;;;;;;;3.92;1.75;;;19.50;99.90;;;;;;4904053;29;20492;-84
2023/07/28 02:08:15;;;;;;;2.22;1.75;;;19.60;99.90;;;;;;4903301;29;20052;-85
2023/07/28 02:10:43;;;;;;;3.63;1.60;;;19.60;99.90;;;;;;4903583;29;20053;-84
2023/07/28 02:13:09;;;;;;;3.58;1.80;;;19.60;99.90;;;;;;4901624;29;20053;-85
2023/07/28 02:15:36;;;;;;;5.20;2.13;;;19.60;99.90;;;;;;4918575;29;20053;-84
2023/07/28 02:18:06;;;;;;;;;;;19.60;99.90;;;;;;4904563;29;20044;-85
2023/07/28 02:20:35;;;;;;;3.55;1.70;;;19.60;99.90;;;;;;4901347;29;19923;-84
2023/07/28 02:23:02;;;;;;;2.13;1.60;;;19.70;99.90;;;;;;4904401;29;20052;-84
2023/07/28 02:25:29;;;;;;;2.72;1.60;;;19.70;99.90;;;;;;4902905;29;20056;-84
2023/07/28 02:27:57;;;;;;;3.50;1.80;;;19.70;99.90;;;;;;4904452;29;20556;-84
2023/07/28 02:30:24;;;;;;;6.38;2.08;;;19.70;99.90;;;;;;4906976;29;20048;-85
2023/07/28 02:32:50;;;;;;;2.72;1.45;;;19.60;99.90;;;;;;4906855;29;20040;-84
2023/07/28 02:35:17;;;;;;;2.28;2.00;;;19.70;99.90;;;;;;4904494;29;20067;-84
2023/07/28 02:37:47;;;;;;;2.03;1.58;;;19.80;99.90;;;;;;4905970;29;20045;-85
2023/07/28 02:40:14;;;;;;;3.35;1.90;;;19.70;99.90;;;;;;4905491;29;20048;-86
2023/07/28 02:42:40;;;;;;;4.03;2.00;;;19.70;99.90;;;;;;4905235;29;20428;-84
2023/07/28 02:45:09;;;;;;;3.33;1.80;;;19.70;99.90;;;;;;4903902;29;20049;-84
2023/07/28 02:47:36;;;;;;;2.05;1.55;;;19.70;99.90;;;;;;4902253;29;20103;-84
2023/07/28 02:50:04;;;;;;;3.38;1.60;;;19.80;99.90;;;;;;4903474;29;20132;-85
2023/07/28 02:52:30;;;;;;;3.70;1.52;;;19.80;99.90;;;;;;4918150;29;20120;-84
2023/07/28 02:54:57;;;;;;;2.78;1.70;;;19.80;99.90;;;;;;4901326;29;20097;-84
2023/07/28 02:57:24;;;;;;;1.50;1.40;;;19.90;99.90;;;;;;4904064;29;20052;-84
2023/07/28 02:59:50;;;;;;;3.25;1.63;;;19.90;99.90;;;;;;4911028;29;20101;-84
2023/07/28 03:02:17;;;;;;;4.40;1.67;;;19.80;99.90;;;;;;4906633;29;20053;-85
2023/07/28 03:04:44;;;;;;;2.33;1.80;;;19.80;99.90;;;;;;4921729;29;20100;-85
2023/07/28 03:07:11;;;;;;;2.03;1.63;;;19.80;99.90;;;;;;4921247;29;20125;-86
2023/07/28 03:09:37;;;;;;;3.35;1.95;;;19.80;99.90;;;;;;4919096;29;20048;-84
2023/07/28 03:12:05;;;;;;;3.85;1.60;;;19.80;99.90;;;;;;4921432;29;20048;-87
2023/07/28 03:14:32;;;;;;;2.38;1.67;;;19.80;99.90;;;;;;4918676;29;20045;-85
2023/07/28 03:16:59;;;;;;;1.52;1.35;;;19.80;99.90;;;;;;4921952;29;20029;-86
2023/07/28 03:19:25;;;;;;;3.35;1.73;;;19.80;99.90;;;;;;4921894;29;20044;-86
2023/07/28 03:21:52;;;;;;;4.53;1.88;;;19.80;99.90;;;;;;4918364;29;20024;-87
2023/07/28 03:24:19;;;;;;;2.17;1.90;;;19.90;99.90;;;;;;4920258;29;20049;-85
2023/07/28 03:26:46;;;;;;;2.53;1.48;;;19.90;99.90;;;;;;4921087;29;20104;-85
2023/07/28 03:29:13;;;;;;;5.13;1.85;;;19.90;99.90;;;;;;4936086;29;20033;-85
2023/07/28 03:31:39;;;;;;;2.70;1.55;;;19.90;99.90;;;;;;4920443;29;20049;-87
2023/07/28 03:34:06;;;;;;;5.10;2.00;;;20.00;99.90;;;;;;4920556;29;20104;-86
2023/07/28 03:36:33;;;;;;;1.92;1.40;;;19.90;99.90;;;;;;4921110;29;20093;-85
2023/07/28 03:39:00;;;;;;;2.40;1.63;;;19.90;99.90;;;;;;4921050;29;20043;-86
2023/07/28 03:41:26;;;;;;;3.38;1.50;;;19.90;99.90;;;;;;4920217;29;20036;-84
2023/07/28 03:43:53;;;;;;;2.17;1.80;;;19.90;99.90;;;;;;4909204;29;20041;-85
2023/07/28 03:46:20;;;;;;;1.95;1.50;;;19.90;99.90;;;;;;4905164;29;20200;-84
2023/07/28 03:48:47;;;;;;;3.08;1.45;;;19.80;99.90;;;;;;4904592;29;20095;-84
2023/07/28 03:51:14;;;;;;;4.72;2.05;;;19.80;99.90;;;;;;4904269;29;20044;-85
2023/07/28 03:53:40;;;;;;;4.70;1.80;;;19.80;99.90;;;;;;4904612;29;20053;-85
2023/07/28 03:56:07;;;;;;;1.58;1.23;;;19.80;99.90;;;;;;4906164;29;20045;-84
2023/07/28 03:58:34;;;;;;;2.85;1.50;;;19.70;99.90;;;;;;4905392;29;20056;-84
2023/07/28 04:01:00;;;;;;;4.15;1.52;;;19.70;99.90;;;;;;4905481;29;20052;-85
2023/07/28 04:03:27;;;;;;;2.63;1.60;;;19.70;99.90;;;;;;4920245;29;20493;-84
2023/07/28 04:05:54;;;;;;;2.65;1.70;;;19.70;99.90;;;;;;4905970;29;20052;-84
2023/07/28 04:08:21;;;;;;;2.25;1.60;;;19.70;99.90;;;;;;4904126;29;20060;-84
2023/07/28 04:10:47;;;;;;;3.42;1.80;;;19.70;99.90;;;;;;4905257;29;20096;-84
2023/07/28 04:13:14;;;;;;;2.47;1.90;;;19.70;99.90;;;;;;4919788;29;20051;-84
2023/07/28 04:15:41;;;;;;;3.42;2.00;;;19.70;99.90;;;;;;4905406;29;20044;-85
2023/07/28 04:18:07;;;;;;;3.90;1.50;;;19.80;99.90;;;;;;4904315;29;20055;-84
2023/07/28 04:20:34;;;;;;;2.15;1.50;;;19.70;99.90;;;;;;4904927;29;20053;-84
2023/07/28 04:23:01;;;;;;;3.70;1.90;;;19.70;99.90;;;;;;4904814;29;20432;-84
2023/07/28 04:25:28;;;;;;;2.35;1.73;;;19.80;99.90;;;;;;4904852;29;20052;-84
2023/07/28 04:27:56;;;;;;;3.45;1.95;;;19.80;99.90;;;;;;4904870;29;20048;-84
2023/07/28 04:30:23;;;;;;;6.07;2.00;;;19.90;99.90;;;;;;4904009;29;20097;-84
2023/07/28 04:32:49;;;;;;;2.47;1.67;;;19.80;99.90;;;;;;4903878;29;20573;-84
2023/07/28 04:35:16;;;;;;;2.00;1.38;;;19.90;99.90;;;;;;4918893;29;20051;-85
2023/07/28 04:37:43;;;;;;;1.92;1.70;;;19.90;99.90;;;;;;4917174;29;20100;-84
2023/07/28 04:40:10;;;;;;;4.68;1.70;;;19.90;99.90;;;;;;4904397;29;20100;-84
2023/07/28 04:42:37;;;;;;;2.28;2.08;;;19.90;99.90;;;;;;4904430;29;20048;-84
2023/07/28 04:45:04;;;;;;;5.90;2.08;;;20.00;99.90;;;;;;4905002;29;20072;-83
2023/07/28 04:47:31;;;;;;;2.72;1.45;;;20.00;99.90;;;;;;4908228;29;20056;-84
2023/07/28 04:49:58;;;;;;;3.92;1.60;;;20.00;99.90;;;;;;4922204;29;20053;-85
2023/07/28 04:52:25;;;;;;;2.72;1.90;;;20.00;99.90;;;;;;4922557;29;20502;-84
2023/07/28 04:54:52;;;;;;;4.25;1.88;;;20.00;99.90;;;;;;4907645;29;20596;-85
2023/07/28 04:57:19;;;;;;;2.92;1.50;;;20.00;99.90;;;;;;4904905;29;20072;-84
2023/07/28 04:59:46;;;;;;;4.25;3.08;;;20.10;99.90;;;;;;4903171;29;20060;-84
2023/07/28 05:02:12;;;;;;;5.20;1.65;;;20.10;99.90;;;;;;4902584;29;20084;-85
2023/07/28 05:04:39;;;;;;;3.75;1.77;;;20.10;99.90;;;;;;4916657;29;20080;-84
2023/07/28 05:07:06;;;;;;;1.80;1.63;;;20.10;99.90;;;;;;4916990;29;20116;-84
2023/07/28 05:09:32;;;;;;;3.40;1.42;;;20.10;99.90;;;;;;4907809;29;20108;-85
2023/07/28 05:11:59;;;;;;;3.35;1.52;;;20.20;99.90;;;;;;4906715;29;20112;-85
2023/07/28 05:14:26;;;;;;;3.67;1.55;;;20.20;99.90;;;;;;4907117;29;20077;-84
2023/07/28 05:16:53;;;;;;;2.38;1.52;;;20.20;99.90;;;;;;4903859;29;20104;-84
2023/07/28 05:19:19;;;;;;;3.42;1.50;;;20.20;99.90;;;;;;4902647;29;20048;-84
2023/07/28 05:21:46;;;;;;;2.00;1.58;;;20.20;99.90;;;;;;4901555;29;20057;-84
2023/07/28 05:24:13;;;;;;;4.10;1.50;;;20.30;99.90;;;;;;4901739;29;20053;-84
2023/07/28 05:26:40;;;;;;;3.08;1.90;;;20.30;99.90;;;;;;4898904;29;20108;-84
2023/07/28 05:29:06;;;;;;;2.63;1.35;;;20.40;99.90;;;;;;4901645;29;20049;-83
2023/07/28 05:31:33;;;;;;;2.30;1.55;;;20.40;99.90;;;;;;4901091;29;20722;-84
2023/07/28 05:34:00;;;;;;;2.00;1.60;;;20.40;99.90;;;;;;4901050;29;20040;-84
2023/07/28 05:36:28;;;;;;;2.08;1.75;;;20.40;99.90;;;;;;4901237;29;20052;-84
2023/07/28 05:38:56;;;;;;;1.90;1.70;;;20.40;99.90;;;;;;4900997;29;20048;-84
2023/07/28 05:41:23;;;;;;;2.80;1.40;;;20.40;99.90;;;;;;4899978;29;20052;-84
2023/07/28 05:43:50;;;;;;;2.03;1.73;;;20.40;99.90;;;;;;4916471;29;20056;-84
2023/07/28 05:46:18;;;;;;;2.28;1.60;;;20.40;99.90;;;;;;4901420;29;20382;-84
2023/07/28 05:48:45;;;;;;;2.70;1.52;;;20.50;99.90;;;;;;4899708;29;20059;-85
2023/07/28 05:51:12;;;;;;;3.00;1.60;;;20.50;99.90;;;;;;4901322;29;20095;-85
2023/07/28 05:53:39;;;;;;;3.22;1.80;;;20.50;99.90;;;;;;4902884;29;20096;-84
2023/07/28 05:56:05;;;;;;;5.72;2.15;;;20.50;99.90;;;;;;4903624;29;20044;-84
2023/07/28 05:58:33;;;;;;;2.40;1.65;;;20.50;99.90;;;;;;4900719;29;20573;-85
2023/07/28 06:00:59;;;;;;;2.17;1.58;;;20.50;99.90;;;;;;4917374;29;20108;-85
2023/07/28 06:03:28;;;;;;;3.67;1.80;;;20.50;99.90;;;;;;4907294;29;20049;-84
2023/07/28 06:05:55;;;;;;;1.75;1.40;;;20.50;99.90;;;;;;4906821;29;20416;-85
2023/07/28 06:08:22;;;;;;;3.40;1.63;;;20.60;99.90;;;;;;4905850;29;20052;-85
2023/07/28 06:10:49;;;;;;;3.15;1.92;;;20.60;99.90;;;;;;4905590;29;20468;-84
2023/07/28 06:13:16;;;;;;;2.15;1.60;;;20.60;99.90;;;;;;4902684;29;20048;-83
2023/07/28 06:15:42;;;;;;;3.47;1.70;;;20.60;99.90;;;;;;4915822;29;20108;-85
2023/07/28 06:18:09;;;;;;;9.27;1.88;;;20.60;99.90;;;;;;4899824;29;20044;-85
2023/07/28 06:20:36;;;;;;;2.13;1.60;;;20.60;99.90;;;;;;4901181;29;20045;-84
2023/07/28 06:23:03;;;;;;;2.72;1.85;;;20.60;99.90;;;;;;4914687;29;20497;-84
2023/07/28 06:25:29;;;;;;;3.25;1.65;;;20.70;99.90;;;;;;4896775;29;20049;-84
2023/07/28 06:27:56;;;;;;;2.65;1.67;;;20.60;99.90;;;;;;4900291;29;20036;-84
2023/07/28 06:30:23;;;;;;;2.50;1.73;;;20.60;99.90;;;;;;4899747;29;20132;-83
2023/07/28 06:32:50;;;;;;;3.05;2.03;;;20.60;99.90;;;;;;4899920;29;20069;-84
2023/07/28 06:35:17;;;;;;;2.90;1.80;;;20.70;99.90;;;;;;4900656;29;20048;-83
2023/07/28 06:37:44;;;;;;;3.42;1.77;;;20.70;99.90;;;;;;4900191;29;20108;-84
2023/07/28 06:40:11;;;;;;;3.53;1.70;;;20.70;99.90;;;;;;4900337;29;20072;-84
2023/07/28 06:42:37;;;;;;;3.35;1.90;;;20.70;99.90;;;;;;4900522;29;20104;-83
2023/07/28 06:45:05;;;;;;;3.28;1.58;;;20.70;99.90;;;;;;4899919;29;20534;-84
2023/07/28 06:47:31;;;;;;;2.17;1.52;;;20.70;99.90;;;;;;4913991;29;20061;-84
2023/07/28 06:49:58;;;;;;;2.15;1.48;;;20.70;99.90;;;;;;4899465;29;20422;-84
2023/07/28 06:52:25;;;;;;;2.85;2.05;;;20.70;99.90;;;;;;4915301;29;20513;-84
2023/07/28 06:54:54;;;;;;;2.28;1.70;;;20.70;99.90;;;;;;4900864;29;20045;-83
2023/07/28 06:57:20;;;;;;;3.88;1.83;;;20.70;99.90;;;;;;4905625;29;20124;-86
2023/07/28 06:59:48;;;;;;;4.18;2.10;;;20.70;99.90;;;;;;4919359;29;20073;-83
2023/07/28 07:02:15;;;;;;;2.42;1.90;;;20.70;99.90;;;;;;4904693;29;20102;-85
2023/07/28 07:04:42;;;;;;;3.97;1.58;;;20.80;99.90;;;;;;4902430;29;20048;-83
2023/07/28 07:07:09;;;;;;;3.15;2.03;;;20.80;99.90;;;;;;4901965;29;20080;-84
2023/07/28 07:09:36;;;;;;;3.30;1.85;;;20.70;99.90;;;;;;4899039;29;20489;-84
2023/07/28 07:12:03;;;;;;;2.17;1.73;;;20.80;99.90;;;;;;4899319;29;20142;-86
2023/07/28 07:14:30;;;;;;;4.38;2.13;;;20.80;99.90;;;;;;4898389;29;20496;-84
2023/07/28 07:16:57;;;;;;;4.40;1.92;;;20.80;99.90;;;;;;4913570;29;20108;-84
2023/07/28 07:19:24;;;;;;;2.78;1.80;;;20.90;99.90;;;;;;4914135;29;20048;-85
2023/07/28 07:21:51;;;;;;;4.88;2.30;;;20.80;99.90;;;;;;4898359;29;20052;-84
2023/07/28 07:24:17;;;;;;;2.53;1.85;;;20.90;99.90;;;;;;4899729;29;20112;-85
2023/07/28 07:26:45;;;;;;;2.70;1.90;;;20.90;99.90;;;;;;4900038;29;20056;-84
2023/07/28 07:29:11;;;;;;;2.92;1.92;;;21.00;99.90;;;;;;4900095;29;20098;-85
2023/07/28 07:31:38;;;;;;;2.30;2.10;;;21.00;99.90;;;;;;4898783;29;20544;-84
2023/07/28 07:34:06;;;;;;;3.30;1.90;;;21.10;99.90;;;;;;4898735;29;20112;-84
2023/07/28 07:36:33;;;;;;;2.90;2.17;;;21.10;99.90;;;;;;4899768;29;20100;-82
2023/07/28 07:39:00;;;;;;;2.63;1.88;;;21.30;99.90;;;;;;4898912;29;20055;-85
2023/07/28 07:41:26;;;;;;;2.35;1.63;;;21.30;99.90;;;;;;4896776;29;20045;-85
2023/07/28 07:43:54;;;;;;;3.70;2.03;;;21.40;99.90;;;;;;4900286;29;20461;-85
2023/07/28 07:46:21;;;;;;;2.67;2.17;;;21.50;99.90;;;;;;4897176;29;20056;-84
2023/07/28 07:48:48;;;;;;;2.55;1.95;;;21.50;99.90;;;;;;4904661;29;20045;-85
2023/07/28 07:51:15;;;;;;;4.18;2.00;;;21.50;99.90;;;;;;4919041;29;20081;-85
2023/07/28 07:53:42;;;;;;;2.85;2.13;;;21.60;99.90;;;;;;4918154;29;20095;-85
2023/07/28 07:56:10;;;;;;;2.38;1.90;;;21.60;99.90;;;;;;4902433;29;20052;-85
2023/07/28 07:58:36;;;;;;;3.50;1.73;;;21.70;99.90;;;;;;4903660;29;20120;-85
2023/07/28 08:01:04;;;;;;;4.05;1.80;;;21.70;99.90;;;;;;4902362;29;20564;-85
2023/07/28 08:03:35;;;;;;;3.88;2.17;;;21.60;99.90;;;;;;4899552;29;20060;-84
2023/07/28 08:06:02;;;;;;;2.92;1.67;;;21.70;99.90;;;;;;4898548;29;20083;-85
2023/07/28 08:08:29;;;;;;;3.80;1.60;;;21.70;99.90;;;;;;4900342;29;20056;-84
2023/07/28 08:10:56;;;;;;;3.10;1.70;;;21.80;99.90;;;;;;4914256;29;20064;-84
2023/07/28 08:13:23;;;;;;;3.13;1.88;;;21.80;99.90;;;;;;4900183;29;20049;-85
2023/07/28 08:15:50;;;;;;;2.65;1.80;;;22.00;99.90;;;;;;4913139;29;20080;-84
2023/07/28 08:18:17;;;;;;;3.67;2.50;;;22.10;99.90;;;;;;4913053;29;20077;-85
2023/07/28 08:20:44;;;;;;;3.22;1.90;;;22.20;99.90;;;;;;4913341;29;20048;-84
2023/07/28 08:23:11;;;;;;;2.67;1.67;;;22.30;99.90;;;;;;4898466;29;20433;-83
2023/07/28 08:25:37;;;;;;;4.15;1.73;;;22.40;99.90;;;;;;4899736;29;20595;-86
2023/07/28 08:28:04;;;;;;;6.00;1.80;;;22.60;99.90;;;;;;4899975;29;20052;-85
2023/07/28 08:30:31;;;;;;;2.63;1.70;;;22.70;99.90;;;;;;4900721;29;20053;-85
2023/07/28 08:32:59;;;;;;;1.95;1.70;;;22.80;99.90;;;;;;4914591;29;20045;-84
2023/07/28 08:35:26;;;;;;;2.00;1.50;;;22.90;99.90;;;;;;4915016;29;20083;-85
2023/07/28 08:37:53;;;;;;;4.38;1.60;;;23.00;99.90;;;;;;4899825;29;20049;-84
2023/07/28 08:40:19;;;;;;;3.80;1.70;;;23.10;99.90;;;;;;4901570;29;20100;-85
2023/07/28 08:42:47;;;;;;;2.50;2.03;;;23.30;99.90;;;;;;4917394;29;20088;-86
2023/07/28 08:45:14;;;;;;;3.28;1.85;;;23.40;99.90;;;;;;4899568;29;20060;-85
2023/07/28 08:47:41;;;;;;;1.75;1.63;;;23.50;99.90;;;;;;4913839;29;20052;-85
2023/07/28 08:50:08;;;;;;;5.05;1.67;;;23.60;99.90;;;;;;4916456;29;20501;-85
2023/07/28 08:52:35;;;;;;;3.10;1.83;;;23.70;99.90;;;;;;4901021;29;20108;-85
2023/07/28 08:55:02;;;;;;;5.30;1.70;;;23.70;99.90;;;;;;4900665;29;20053;-85
2023/07/28 08:57:29;;;;;;;3.75;2.00;;;23.90;99.90;;;;;;4899236;29;20056;-84
2023/07/28 08:59:56;;;;;;;7.25;1.67;;;23.90;99.90;;;;;;4899600;29;20104;-85
2023/07/28 09:02:23;;;;;;;3.70;1.90;;;23.90;99.90;;;;;;4899726;29;20496;-85
2023/07/28 09:04:50;;;;;;;5.93;1.90;;;24.00;99.90;;;;;;4899593;29;20100;-85
2023/07/28 09:07:17;;;;;;;1.83;1.38;;;24.00;99.90;;;;;;4912989;29;20048;-85
2023/07/28 09:09:43;;;;;;;3.03;1.85;;;24.00;99.90;;;;;;4899224;29;20060;-85
2023/07/28 09:12:10;;;;;;;1.88;1.40;;;24.30;99.90;;;;;;4898881;29;20401;-85
2023/07/28 09:14:38;;;;;;;2.50;1.35;;;24.30;99.90;;;;;;4913966;29;20084;-85
2023/07/28 09:17:11;;;;;;;3.95;1.52;;;24.50;99.90;;;;;;4913578;29;20103;-83
2023/07/28 09:19:50;;;;;;;3.78;1.38;;;24.60;99.90;;;;;;4895929;29;20056;-85
2023/07/28 09:22:18;;;;;;;3.53;1.50;;;24.70;99.90;;;;;;4898096;29;20108;-85
2023/07/28 09:24:45;;;;;;;2.35;1.50;;;24.90;99.90;;;;;;4898478;29;20132;-84
2023/07/28 09:27:23;;;;;;;4.20;1.73;;;24.90;99.90;;;;;;4902346;29;20118;-84
2023/07/28 09:29:51;;;;;;;4.53;1.33;;;24.90;99.90;;;;;;4899681;29;20052;-85
2023/07/28 09:32:32;;;;;;;2.42;1.27;;;25.00;99.90;;;;;;4902092;29;20044;-85
2023/07/28 09:35:09;;;;;;;2.78;1.20;;;25.00;99.90;;;;;;4904766;29;20056;-85
2023/07/28 09:37:39;;;;;;;2.67;1.55;;;25.10;99.90;;;;;;4901335;29;20308;-85
2023/07/28 09:40:21;;;;;;;3.47;1.50;;;25.20;99.90;;;;;;4917950;29;20104;-84
2023/07/28 09:42:49;;;;;;;1.45;1.35;;;25.10;99.90;;;;;;4903251;29;20057;-85
2023/07/28 09:45:23;;;;;;;2.88;1.40;;;25.20;99.90;;;;;;4902646;29;20063;-84
2023/07/28 09:47:57;;;;;;;1.90;1.55;;;25.20;99.90;;;;;;4918627;29;20131;-85
2023/07/28 09:50:26;;;;;;;4.32;1.77;;;25.30;99.90;;;;;;4902872;29;20049;-85
2023/07/28 09:52:57;;;;;;;3.00;1.55;;;25.30;99.90;;;;;;4901762;29;20049;-85
2023/07/28 09:55:24;;;;;;;5.32;1.90;;;25.40;99.90;;;;;;4901368;29;20049;-83
2023/07/28 09:57:53;;;;;;;2.65;1.50;;;25.40;99.90;;;;;;4899245;29;20048;-85
2023/07/28 10:00:22;;;;;;;1.75;1.20;;;25.50;99.90;;;;;;4903206;29;20052;-84
2023/07/28 10:02:50;;;;;;;2.05;1.40;;;25.50;99.90;;;;;;4902355;29;20053;-85
2023/07/28 10:05:17;;;;;;;1.98;1.40;;;25.50;99.90;;;;;;4903290;29;20064;-86
2023/07/28 10:07:46;;;;;;;3.45;1.80;;;25.50;99.90;;;;;;4900620;29;20060;-85
2023/07/28 10:10:15;;;;;;;2.15;1.50;;;25.50;99.90;;;;;;4916054;29;20057;-85
2023/07/28 10:12:52;;;;;;;3.58;2.00;;;25.50;99.90;;;;;;4901469;29;20143;-84
2023/07/28 10:15:20;;;;;;;3.55;1.85;;;25.50;99.90;;;;;;4900543;29;20112;-84
2023/07/28 10:17:52;;;;;;;2.33;1.50;;;25.50;99.90;;;;;;4900969;29;20085;-84
2023/07/28 10:20:28;;;;;;;3.05;1.50;;;25.60;99.90;;;;;;4903798;29;20053;-85
2023/07/28 10:23:21;;;;;;;2.72;1.70;;;25.50;99.90;;;;;;4903967;29;20089;-85
2023/07/28 10:25:58;;;;;;;3.10;1.98;;;25.50;99.90;;;;;;4902240;29;20059;-85
2023/07/28 10:28:26;;;;;;;1.98;1.75;;;25.40;99.90;;;;;;4901873;29;20425;-85
2023/07/28 10:30:54;;;;;;;7.32;1.55;;;25.40;99.90;;;;;;4901995;29;20087;-85
2023/07/28 10:33:35;;;;;;;2.38;1.80;;;25.40;99.90;;;;;;4903688;29;20049;-85
2023/07/28 10:36:37;;;;;;;4.20;1.83;;;25.40;99.90;;;;;;4900819;29;20071;-83
2023/07/28 10:39:04;;;;;;;2.78;2.08;;;25.40;99.90;;;;;;4913972;29;20044;-83
2023/07/28 10:41:35;;;;;;;2.60;1.75;;;25.30;99.90;;;;;;4903522;29;20105;-83
2023/07/28 10:44:02;;;;;;;2.30;1.70;;;25.30;99.90;;;;;;4899913;29;20057;-86
2023/07/28 10:46:29;;;;;;;3.20;1.90;;;25.30;99.90;;;;;;4906240;29;20077;-83
2023/07/28 10:48:56;;;;;;;4.78;1.58;;;25.30;99.90;;;;;;4904921;29;20111;-83
2023/07/28 10:51:31;;;;;;;1.70;1.60;;;25.30;99.90;;;;;;4905674;29;20753;-83
2023/07/28 10:53:59;;;;;;;8.05;1.83;;;25.20;99.90;;;;;;4898050;29;20045;-83
2023/07/28 10:56:26;;;;;;;7.00;1.83;;;25.20;99.90;;;;;;4900542;29;20052;-83
2023/07/28 10:58:57;;;;;;;3.83;1.75;;;25.30;99.90;;;;;;4905035;29;20056;-83
2023/07/28 11:01:37;;;;;;;3.33;1.88;;;25.30;99.90;;;;;;4901312;29;20052;-83
2023/07/28 11:04:10;;;;;;;4.32;1.88;;;25.30;99.90;;;;;;4899004;29;20139;-83
2023/07/28 11:06:40;;;;;;;3.22;1.60;;;25.40;99.90;;;;;;4902085;29;20084;-84
2023/07/28 11:09:08;;;;;;;3.35;2.08;;;25.50;99.90;;;;;;4897106;29;20502;-83
2023/07/28 11:11:36;;;;;;;3.50;2.28;;;25.60;99.90;;;;;;4901571;29;20100;-83
2023/07/28 11:14:05;;;;;;;3.28;2.28;;;25.60;99.90;;;;;;4904616;29;20072;-83
2023/07/28 11:16:34;;;;;;;3.47;1.77;;;25.60;99.90;;;;;;4914953;29;20072;-83
2023/07/28 11:19:06;;;;;;;4.80;2.00;;;25.70;99.90;;;;;;4902296;29;20052;-84
2023/07/28 11:21:40;;;;;;;2.13;1.90;;;25.70;99.90;;;;;;4901149;29;20052;-83
2023/07/28 11:24:08;;;;;;;3.00;1.95;;;25.80;99.90;;;;;;4900856;29;20093;-83
2023/07/28 11:26:36;;;;;;;2.28;1.70;;;25.90;99.90;;;;;;4901995;29;20068;-83
2023/07/28 11:29:04;;;;;;;2.95;1.80;;;26.00;99.90;;;;;;4902072;29;20061;-84
2023/07/28 11:31:31;;;;;;;5.50;2.22;;;26.00;99.90;;;;;;4900275;29;20056;-84
2023/07/28 11:33:58;;;;;;;3.53;2.35;;;26.00;99.90;;;;;;4901920;29;20078;-84
2023/07/28 11:36:29;;;;;;;4.85;2.20;;;26.10;99.90;;;;;;4902118;29;20052;-85
2023/07/28 11:38:59;;;;;;;3.42;2.10;;;26.00;99.90;;;;;;4913520;29;20066;-84
2023/07/28 11:41:27;;;;;;;4.28;2.70;;;26.10;99.90;;;;;;4900660;29;20084;-84
2023/07/28 11:43:54;;;;;;;2.95;2.13;;;26.20;99.90;;;;;;4900495;29;20044;-84
2023/07/28 11:46:39;;;;;;;3.63;2.45;;;26.20;99.90;;;;;;4901779;29;20480;-84
2023/07/28 11:49:21;;;;;;;4.65;2.35;;;25.90;99.90;;;;;;4898825;29;20422;-85
2023/07/28 11:51:51;;;;;;;4.90;2.50;;;25.80;99.90;;;;;;4916126;29;20053;-84
2023/07/28 11:54:21;;;;;;;;;;;25.70;99.90;;;;;;4916036;29;20083;-85
2023/07/28 11:56:50;;;;;;;4.30;2.20;;;25.70;99.90;;;;;;4902249;29;19971;-84
2023/07/28 11:59:18;;;;;;;3.97;2.67;;;25.70;99.90;;;;;;4916174;29;20308;-85
2023/07/28 12:01:59;;;;;;;4.07;2.08;;;25.70;99.90;;;;;;4902714;29;20100;-84
2023/07/28 12:04:31;;;;;;;5.95;3.25;;;25.70;99.90;;;;;;4903009;29;20053;-85
2023/07/28 12:07:06;;;;;;;3.92;2.22;;;25.70;99.90;;;;;;4901056;29;20064;-85
2023/07/28 12:10:00;;;;;;;3.33;2.10;;;25.60;99.90;;;;;;4914655;29;20048;-84
2023/07/28 12:12:31;;;;;;;3.83;2.35;;;25.30;99.90;;;;;;4901990;29;20073;-84
2023/07/28 12:15:04;;;;;;;2.50;2.15;;;25.30;99.90;;;;;;4914847;29;20049;-84
2023/07/28 12:17:34;;;;;;;3.00;2.28;;;25.20;99.90;;;;;;4916544;29;20103;-84
2023/07/28 12:20:14;;;;;;;7.68;3.08;;;25.10;99.90;;;;;;4914663;29;20077;-83
2023/07/28 12:22:42;;;;;;;5.25;2.75;;;25.00;99.90;;;;;;4908569;29;20055;-83
2023/07/28 12:25:10;;;;;;;3.65;2.15;;;25.00;99.90;;;;;;4917279;29;20048;-85
2023/07/28 12:27:37;;;;;;;3.50;2.28;;;25.00;99.90;;;;;;4902081;29;20104;-83
2023/07/28 12:30:04;;;;;;;2.47;2.28;;;25.10;99.90;;;;;;4901498;29;20055;-84
2023/07/28 12:32:31;;;;;;;4.25;2.42;;;25.10;99.90;;;;;;4901905;29;20047;-84
2023/07/28 12:35:01;;;;;;;6.40;2.53;;;25.10;99.90;;;;;;4912787;29;20108;-84
2023/07/28 12:37:41;;;;;;;2.90;2.30;;;25.10;99.90;;;;;;4901511;29;20083;-84
2023/07/28 12:40:11;;;;;;;2.80;2.50;;;25.10;99.90;;;;;;4914354;29;20086;-85
2023/07/28 12:42:59;;;;;;;2.47;2.28;;;25.20;99.90;;;;;;4901157;29;20424;-84
2023/07/28 12:45:28;;;;;;;2.40;1.83;;;25.20;99.90;;;;;;4901373;29;20067;-84
2023/07/28 12:48:15;;;;;;;4.18;2.00;;;25.20;99.90;;;;;;4899105;29;20508;-84
2023/07/28 12:50:46;;;;;;;2.40;1.73;;;25.20;99.90;;;;;;4902247;29;20057;-85
2023/07/28 12:53:13;;;;;;;2.40;1.83;;;25.10;99.90;;;;;;4901602;29;20048;-84
2023/07/28 12:55:44;;;;;;;3.80;2.33;;;25.10;99.90;;;;;;4903502;29;20056;-84